sensor_id;sensor_type;location;lat;lon;timestamp;pressure;altitude;pressure_sealevel;temperature;humidity
7264;BME280;3673;52.480;13.348;2023-06-14T00:00:45;101334.84;;;21.38;41.11
7264;BME280;3673;52.480;13.348;2023-06-14T00:03:14;101341.22;;;21.32;41.43
7264;BME280;3673;52.480;13.348;2023-06-14T00:05:43;101344.13;;;21.26;41.57
7264;BME280;3673;52.480;13.348;2023-06-14T00:08:13;101341.28;;;21.31;41.38
7264;BME280;3673;52.480;13.348;2023-06-14T00:10:41;101338.84;;;21.25;41.63
7264;BME280;3673;52.480;13.348;2023-06-14T00:13:08;101342.38;;;21.25;41.60
7264;BME280;3673;52.480;13.348;2023-06-14T00:15:35;101342.00;;;21.11;41.78
7264;BME280;3673;52.480;13.348;2023-06-14T00:18:02;101348.41;;;21.04;42.16
7264;BME280;3673;52.480;13.348;2023-06-14T00:20:32;101355.34;;;21.10;42.05
7264;BME280;3673;52.480;13.348;2023-06-14T00:22:59;101359.28;;;20.98;42.31
7264;BME280;3673;52.480;13.348;2023-06-14T00:25:28;101346.81;;;20.98;42.74
7264;BME280;3673;52.480;13.348;2023-06-14T00:27:55;101344.00;;;21.03;42.58
7264;BME280;3673;52.480;13.348;2023-06-14T00:30:23;101351.19;;;21.01;42.87
7264;BME280;3673;52.480;13.348;2023-06-14T00:32:50;101342.34;;;21.00;42.72
7264;BME280;3673;52.480;13.348;2023-06-14T00:35:18;101342.91;;;20.84;43.34
7264;BME280;3673;52.480;13.348;2023-06-14T00:37:45;101347.09;;;20.91;43.27
7264;BME280;3673;52.480;13.348;2023-06-14T00:40:11;101351.28;;;20.72;43.56
7264;BME280;3673;52.480;13.348;2023-06-14T00:42:39;101349.78;;;20.63;43.94
7264;BME280;3673;52.480;13.348;2023-06-14T00:45:08;101348.03;;;20.62;44.24
7264;BME280;3673;52.480;13.348;2023-06-14T00:47:35;101351.59;;;20.63;44.55
7264;BME280;3673;52.480;13.348;2023-06-14T00:50:07;101348.69;;;20.70;44.31
7264;BME280;3673;52.480;13.348;2023-06-14T00:52:34;101348.44;;;20.78;44.52
7264;BME280;3673;52.480;13.348;2023-06-14T00:55:02;101346.63;;;20.78;44.59
7264;BME280;3673;52.480;13.348;2023-06-14T00:57:29;101347.91;;;20.67;45.00
7264;BME280;3673;52.480;13.348;2023-06-14T00:59:57;101346.47;;;20.57;45.21
7264;BME280;3673;52.480;13.348;2023-06-14T01:02:24;101356.00;;;20.64;45.08
7264;BME280;3673;52.480;13.348;2023-06-14T01:04:52;101352.56;;;20.32;45.74
7264;BME280;3673;52.480;13.348;2023-06-14T01:07:28;101340.78;;;20.41;45.86
7264;BME280;3673;52.480;13.348;2023-06-14T01:10:12;101348.88;;;20.64;45.56
7264;BME280;3673;52.480;13.348;2023-06-14T01:12:52;101349.91;;;20.60;45.64
7264;BME280;3673;52.480;13.348;2023-06-14T01:15:24;101350.47;;;20.70;45.51
7264;BME280;3673;52.480;13.348;2023-06-14T01:17:51;101351.38;;;20.69;45.78
7264;BME280;3673;52.480;13.348;2023-06-14T01:20:21;101349.03;;;20.60;45.83
7264;BME280;3673;52.480;13.348;2023-06-14T01:22:52;101361.44;;;20.59;46.02
7264;BME280;3673;52.480;13.348;2023-06-14T01:25:19;101356.78;;;20.66;45.87
7264;BME280;3673;52.480;13.348;2023-06-14T01:27:49;101344.44;;;20.65;45.76
7264;BME280;3673;52.480;13.348;2023-06-14T01:30:18;101348.56;;;20.73;45.72
7264;BME280;3673;52.480;13.348;2023-06-14T01:32:50;101346.91;;;20.71;45.62
7264;BME280;3673;52.480;13.348;2023-06-14T01:35:18;101340.75;;;20.69;45.90
7264;BME280;3673;52.480;13.348;2023-06-14T01:37:47;101344.44;;;20.65;45.78
7264;BME280;3673;52.480;13.348;2023-06-14T01:40:18;101337.16;;;20.70;45.50
7264;BME280;3673;52.480;13.348;2023-06-14T01:42:47;101345.44;;;20.61;45.86
7264;BME280;3673;52.480;13.348;2023-06-14T01:45:15;101340.94;;;20.63;45.84
7264;BME280;3673;52.480;13.348;2023-06-14T01:47:44;101341.97;;;20.59;45.96
7264;BME280;3673;52.480;13.348;2023-06-14T01:50:11;101343.78;;;20.58;45.92
7264;BME280;3673;52.480;13.348;2023-06-14T01:52:38;101348.00;;;20.64;45.84
7264;BME280;3673;52.480;13.348;2023-06-14T01:55:06;101339.38;;;20.57;45.95
7264;BME280;3673;52.480;13.348;2023-06-14T01:57:34;101338.47;;;20.58;45.99
7264;BME280;3673;52.480;13.348;2023-06-14T02:00:02;101355.22;;;20.60;45.75
7264;BME280;3673;52.480;13.348;2023-06-14T02:02:29;101344.47;;;20.63;45.93
7264;BME280;3673;52.480;13.348;2023-06-14T02:04:56;101349.31;;;20.50;46.20
7264;BME280;3673;52.480;13.348;2023-06-14T02:07:23;101355.63;;;20.48;46.14
7264;BME280;3673;52.480;13.348;2023-06-14T02:09:50;101353.81;;;20.48;46.21
7264;BME280;3673;52.480;13.348;2023-06-14T02:12:17;101366.22;;;20.19;46.96
7264;BME280;3673;52.480;13.348;2023-06-14T02:14:45;101360.63;;;20.29;46.75
7264;BME280;3673;52.480;13.348;2023-06-14T02:17:12;101359.72;;;20.30;46.58
7264;BME280;3673;52.480;13.348;2023-06-14T02:19:39;101364.97;;;20.32;46.64
7264;BME280;3673;52.480;13.348;2023-06-14T02:22:06;101353.41;;;20.34;46.75
7264;BME280;3673;52.480;13.348;2023-06-14T02:24:33;101353.72;;;20.22;47.07
7264;BME280;3673;52.480;13.348;2023-06-14T02:26:59;101353.19;;;20.11;47.43
7264;BME280;3673;52.480;13.348;2023-06-14T02:29:26;101352.31;;;20.11;47.61
7264;BME280;3673;52.480;13.348;2023-06-14T02:31:54;101353.00;;;20.17;47.49
7264;BME280;3673;52.480;13.348;2023-06-14T02:34:21;101353.19;;;20.11;47.80
7264;BME280;3673;52.480;13.348;2023-06-14T02:36:48;101361.06;;;20.14;47.75
7264;BME280;3673;52.480;13.348;2023-06-14T02:39:15;101359.13;;;19.91;48.28
7264;BME280;3673;52.480;13.348;2023-06-14T02:41:43;101361.34;;;20.05;48.11
7264;BME280;3673;52.480;13.348;2023-06-14T02:44:10;101356.03;;;20.05;48.13
7264;BME280;3673;52.480;13.348;2023-06-14T02:46:38;101361.31;;;20.07;48.27
7264;BME280;3673;52.480;13.348;2023-06-14T02:49:06;101357.06;;;20.01;48.19
7264;BME280;3673;52.480;13.348;2023-06-14T02:51:33;101359.56;;;20.05;48.19
7264;BME280;3673;52.480;13.348;2023-06-14T02:54:00;101356.78;;;20.09;47.97
7264;BME280;3673;52.480;13.348;2023-06-14T02:56:27;101363.66;;;20.16;47.94
7264;BME280;3673;52.480;13.348;2023-06-14T02:58:54;101365.88;;;20.01;48.50
7264;BME280;3673;52.480;13.348;2023-06-14T03:01:20;101360.34;;;20.09;48.06
7264;BME280;3673;52.480;13.348;2023-06-14T03:03:48;101358.63;;;20.08;48.26
7264;BME280;3673;52.480;13.348;2023-06-14T03:06:18;101356.03;;;20.05;48.01
7264;BME280;3673;52.480;13.348;2023-06-14T03:08:44;101364.34;;;19.94;48.52
7264;BME280;3673;52.480;13.348;2023-06-14T03:11:11;101358.56;;;19.79;48.93
7264;BME280;3673;52.480;13.348;2023-06-14T03:13:38;101355.59;;;19.91;48.52
7264;BME280;3673;52.480;13.348;2023-06-14T03:16:06;101360.81;;;19.94;48.58
7264;BME280;3673;52.480;13.348;2023-06-14T03:18:34;101360.03;;;19.90;48.72
7264;BME280;3673;52.480;13.348;2023-06-14T03:21:01;101362.97;;;20.11;48.18
7264;BME280;3673;52.480;13.348;2023-06-14T03:23:30;101353.19;;;20.11;48.17
7264;BME280;3673;52.480;13.348;2023-06-14T03:25:57;101361.19;;;20.11;48.00
7264;BME280;3673;52.480;13.348;2023-06-14T03:28:24;101360.97;;;20.17;47.92
7264;BME280;3673;52.480;13.348;2023-06-14T03:30:51;101365.41;;;20.17;47.87
7264;BME280;3673;52.480;13.348;2023-06-14T03:33:18;101367.94;;;20.21;47.72
7264;BME280;3673;52.480;13.348;2023-06-14T03:35:44;101367.06;;;20.21;48.00
7264;BME280;3673;52.480;13.348;2023-06-14T03:38:11;101372.31;;;20.22;47.99
7264;BME280;3673;52.480;13.348;2023-06-14T03:40:39;101377.47;;;20.28;47.81
7264;BME280;3673;52.480;13.348;2023-06-14T03:43:06;101375.75;;;20.26;47.52
7264;BME280;3673;52.480;13.348;2023-06-14T03:45:33;101372.31;;;20.22;47.71
7264;BME280;3673;52.480;13.348;2023-06-14T03:48:00;101375.91;;;20.21;47.94
7264;BME280;3673;52.480;13.348;2023-06-14T03:50:27;101377.41;;;20.31;47.56
7264;BME280;3673;52.480;13.348;2023-06-14T03:52:53;101383.06;;;20.19;47.84
7264;BME280;3673;52.480;13.348;2023-06-14T03:55:20;101379.94;;;20.05;48.20
7264;BME280;3673;52.480;13.348;2023-06-14T03:57:48;101387.28;;;20.28;47.75
7264;BME280;3673;52.480;13.348;2023-06-14T04:00:16;101382.19;;;20.19;47.75
7264;BME280;3673;52.480;13.348;2023-06-14T04:02:43;101384.06;;;20.15;47.89
7264;BME280;3673;52.480;13.348;2023-06-14T04:05:10;101387.38;;;20.23;48.04
7264;BME280;3673;52.480;13.348;2023-06-14T04:07:37;101379.22;;;20.29;47.44
7264;BME280;3673;52.480;13.348;2023-06-14T04:10:07;101383.78;;;20.24;47.62
7264;BME280;3673;52.480;13.348;2023-06-14T04:12:34;101395.44;;;20.49;47.37
7264;BME280;3673;52.480;13.348;2023-06-14T04:15:03;101402.63;;;20.46;47.38
7264;BME280;3673;52.480;13.348;2023-06-14T04:17:31;101409.50;;;20.53;47.26
7264;BME280;3673;52.480;13.348;2023-06-14T04:20:00;101405.66;;;20.62;46.85
7264;BME280;3673;52.480;13.348;2023-06-14T04:22:28;101402.06;;;20.64;46.60
7264;BME280;3673;52.480;13.348;2023-06-14T04:24:58;101405.97;;;20.52;47.00
7264;BME280;3673;52.480;13.348;2023-06-14T04:27:26;101402.31;;;20.57;46.65
7264;BME280;3673;52.480;13.348;2023-06-14T04:29:56;101401.66;;;20.76;46.57
7264;BME280;3673;52.480;13.348;2023-06-14T04:32:26;101402.53;;;20.77;46.32
7264;BME280;3673;52.480;13.348;2023-06-14T04:34:55;101401.22;;;20.90;45.91
7264;BME280;3673;52.480;13.348;2023-06-14T04:37:23;101396.59;;;20.95;45.69
7264;BME280;3673;52.480;13.348;2023-06-14T04:39:50;101396.25;;;20.79;45.99
7264;BME280;3673;52.480;13.348;2023-06-14T04:42:17;101394.66;;;20.74;46.09
7264;BME280;3673;52.480;13.348;2023-06-14T04:44:46;101398.88;;;21.07;45.48
7264;BME280;3673;52.480;13.348;2023-06-14T04:47:14;101398.66;;;21.15;45.27
7264;BME280;3673;52.480;13.348;2023-06-14T04:49:43;101395.03;;;21.16;44.94
7264;BME280;3673;52.480;13.348;2023-06-14T04:52:10;101404.66;;;21.20;44.48
7264;BME280;3673;52.480;13.348;2023-06-14T04:54:38;101400.88;;;21.27;44.48
7264;BME280;3673;52.480;13.348;2023-06-14T04:57:07;101393.88;;;21.24;44.58
7264;BME280;3673;52.480;13.348;2023-06-14T04:59:34;101399.50;;;21.41;44.36
7264;BME280;3673;52.480;13.348;2023-06-14T05:02:02;101399.19;;;21.49;44.19
7264;BME280;3673;52.480;13.348;2023-06-14T05:04:29;101400.56;;;21.61;43.98
7264;BME280;3673;52.480;13.348;2023-06-14T05:06:57;101398.97;;;21.55;43.89
7264;BME280;3673;52.480;13.348;2023-06-14T05:09:24;101413.59;;;21.43;43.98
7264;BME280;3673;52.480;13.348;2023-06-14T05:11:51;101402.47;;;21.57;43.71
7264;BME280;3673;52.480;13.348;2023-06-14T05:14:17;101406.59;;;21.41;44.05
7264;BME280;3673;52.480;13.348;2023-06-14T05:16:45;101413.50;;;21.46;43.66
7264;BME280;3673;52.480;13.348;2023-06-14T05:19:14;101414.53;;;21.42;43.85
7264;BME280;3673;52.480;13.348;2023-06-14T05:21:43;101411.06;;;21.40;44.00
7264;BME280;3673;52.480;13.348;2023-06-14T05:24:11;101415.03;;;21.53;43.47
7264;BME280;3673;52.480;13.348;2023-06-14T05:26:38;101417.47;;;21.60;43.31
7264;BME280;3673;52.480;13.348;2023-06-14T05:29:05;101410.25;;;21.63;42.98
7264;BME280;3673;52.480;13.348;2023-06-14T05:31:32;101414.19;;;21.76;43.09
7264;BME280;3673;52.480;13.348;2023-06-14T05:33:59;101429.59;;;21.93;42.91
7264;BME280;3673;52.480;13.348;2023-06-14T05:36:26;101421.84;;;21.85;42.65
7264;BME280;3673;52.480;13.348;2023-06-14T05:38:53;101417.59;;;21.81;42.68
7264;BME280;3673;52.480;13.348;2023-06-14T05:41:24;101421.38;;;21.74;42.99
7264;BME280;3673;52.480;13.348;2023-06-14T05:43:51;101423.94;;;21.77;43.22
7264;BME280;3673;52.480;13.348;2023-06-14T05:46:18;101422.84;;;21.83;42.95
7264;BME280;3673;52.480;13.348;2023-06-14T05:48:47;101422.53;;;21.67;43.35
7264;BME280;3673;52.480;13.348;2023-06-14T05:51:14;101426.94;;;21.93;42.90
7264;BME280;3673;52.480;13.348;2023-06-14T05:53:44;101439.88;;;22.03;42.70
7264;BME280;3673;52.480;13.348;2023-06-14T05:56:11;101441.25;;;21.90;42.88
7264;BME280;3673;52.480;13.348;2023-06-14T05:58:39;101434.16;;;21.65;43.38
7264;BME280;3673;52.480;13.348;2023-06-14T06:01:05;101444.81;;;21.65;43.61
7264;BME280;3673;52.480;13.348;2023-06-14T06:03:33;101439.41;;;21.66;44.03
7264;BME280;3673;52.480;13.348;2023-06-14T06:06:00;101437.16;;;21.80;43.49
7264;BME280;3673;52.480;13.348;2023-06-14T06:08:28;101446.19;;;21.51;44.14
7264;BME280;3673;52.480;13.348;2023-06-14T06:10:55;101447.59;;;21.35;44.34
7264;BME280;3673;52.480;13.348;2023-06-14T06:13:22;101442.00;;;21.18;44.77
7264;BME280;3673;52.480;13.348;2023-06-14T06:15:50;101445.97;;;21.58;43.99
7264;BME280;3673;52.480;13.348;2023-06-14T06:18:17;101445.00;;;21.58;43.95
7264;BME280;3673;52.480;13.348;2023-06-14T06:20:44;101444.84;;;21.63;44.21
7264;BME280;3673;52.480;13.348;2023-06-14T06:23:12;101446.47;;;21.42;44.62
7264;BME280;3673;52.480;13.348;2023-06-14T06:25:39;101453.50;;;21.19;45.29
7264;BME280;3673;52.480;13.348;2023-06-14T06:28:07;101442.03;;;21.43;44.71
7264;BME280;3673;52.480;13.348;2023-06-14T06:30:33;101443.41;;;21.54;44.45
7264;BME280;3673;52.480;13.348;2023-06-14T06:33:02;101443.09;;;21.62;44.38
7264;BME280;3673;52.480;13.348;2023-06-14T06:35:29;101439.91;;;21.52;44.50
7264;BME280;3673;52.480;13.348;2023-06-14T06:37:59;101446.84;;;21.58;44.57
7264;BME280;3673;52.480;13.348;2023-06-14T06:40:26;101443.84;;;21.67;44.56
7264;BME280;3673;52.480;13.348;2023-06-14T06:42:53;101448.41;;;21.64;44.65
7264;BME280;3673;52.480;13.348;2023-06-14T06:45:20;101442.09;;;21.66;44.48
7264;BME280;3673;52.480;13.348;2023-06-14T06:47:48;101450.31;;;21.60;44.47
7264;BME280;3673;52.480;13.348;2023-06-14T06:50:18;101452.41;;;21.50;44.68
7264;BME280;3673;52.480;13.348;2023-06-14T06:52:45;101455.41;;;21.66;44.57
7264;BME280;3673;52.480;13.348;2023-06-14T06:55:12;101463.06;;;21.75;44.28
7264;BME280;3673;52.480;13.348;2023-06-14T06:57:39;101454.75;;;21.84;44.10
7264;BME280;3673;52.480;13.348;2023-06-14T07:00:07;101448.44;;;21.87;44.06
7264;BME280;3673;52.480;13.348;2023-06-14T07:02:35;101450.31;;;21.85;44.01
7264;BME280;3673;52.480;13.348;2023-06-14T07:05:03;101448.72;;;22.95;40.89
7264;BME280;3673;52.480;13.348;2023-06-14T07:07:31;101454.50;;;23.48;40.08
7264;BME280;3673;52.480;13.348;2023-06-14T07:09:58;101457.78;;;23.35;40.26
7264;BME280;3673;52.480;13.348;2023-06-14T07:12:26;101471.56;;;23.86;39.84
7264;BME280;3673;52.480;13.348;2023-06-14T07:14:52;101476.56;;;23.94;39.55
7264;BME280;3673;52.480;13.348;2023-06-14T07:17:19;101476.13;;;23.84;39.70
7264;BME280;3673;52.480;13.348;2023-06-14T07:19:46;101477.50;;;23.52;40.34
7264;BME280;3673;52.480;13.348;2023-06-14T07:22:13;101483.53;;;23.57;40.30
7264;BME280;3673;52.480;13.348;2023-06-14T07:24:41;101486.94;;;23.39;40.34
7264;BME280;3673;52.480;13.348;2023-06-14T07:27:08;101485.06;;;23.63;40.14
7264;BME280;3673;52.480;13.348;2023-06-14T07:29:36;101482.56;;;23.58;40.27
7264;BME280;3673;52.480;13.348;2023-06-14T07:32:04;101486.53;;;23.70;39.63
7264;BME280;3673;52.480;13.348;2023-06-14T07:34:31;101474.50;;;24.00;39.45
7264;BME280;3673;52.480;13.348;2023-06-14T07:36:57;101471.53;;;24.06;38.88
7264;BME280;3673;52.480;13.348;2023-06-14T07:39:24;101480.56;;;24.24;38.82
7264;BME280;3673;52.480;13.348;2023-06-14T07:41:52;101483.97;;;24.07;39.08
7264;BME280;3673;52.480;13.348;2023-06-14T07:44:19;101485.19;;;24.21;38.91
7264;BME280;3673;52.480;13.348;2023-06-14T07:46:46;101477.16;;;24.21;38.87
7264;BME280;3673;52.480;13.348;2023-06-14T07:49:14;101477.59;;;23.71;39.74
7264;BME280;3673;52.480;13.348;2023-06-14T07:51:41;101484.31;;;24.00;39.45
7264;BME280;3673;52.480;13.348;2023-06-14T07:54:09;101482.19;;;23.88;39.34
7264;BME280;3673;52.480;13.348;2023-06-14T07:56:36;101483.41;;;24.21;38.96
7264;BME280;3673;52.480;13.348;2023-06-14T07:59:04;101479.03;;;24.19;39.17
7264;BME280;3673;52.480;13.348;2023-06-14T08:01:32;101478.50;;;24.31;38.84
7264;BME280;3673;52.480;13.348;2023-06-14T08:03:59;101477.03;;;24.42;38.34
7264;BME280;3673;52.480;13.348;2023-06-14T08:06:26;101468.63;;;24.69;37.77
7264;BME280;3673;52.480;13.348;2023-06-14T08:08:53;101462.66;;;24.64;38.03
7264;BME280;3673;52.480;13.348;2023-06-14T08:11:20;101462.88;;;24.59;37.83
7264;BME280;3673;52.480;13.348;2023-06-14T08:13:49;101459.69;;;24.70;37.70
7264;BME280;3673;52.480;13.348;2023-06-14T08:16:17;101460.63;;;24.31;38.51
7264;BME280;3673;52.480;13.348;2023-06-14T08:18:44;101448.56;;;24.41;38.63
7264;BME280;3673;52.480;13.348;2023-06-14T08:21:11;101455.06;;;24.36;38.47
7264;BME280;3673;52.480;13.348;2023-06-14T08:23:40;101463.56;;;24.25;38.75
7264;BME280;3673;52.480;13.348;2023-06-14T08:26:08;101459.03;;;24.46;38.26
7264;BME280;3673;52.480;13.348;2023-06-14T08:28:35;101468.38;;;24.56;37.92
7264;BME280;3673;52.480;13.348;2023-06-14T08:31:02;101470.31;;;24.71;37.76
7264;BME280;3673;52.480;13.348;2023-06-14T08:33:30;101463.53;;;24.64;37.75
7264;BME280;3673;52.480;13.348;2023-06-14T08:35:59;101464.25;;;24.68;37.01
7264;BME280;3673;52.480;13.348;2023-06-14T08:38:26;101471.69;;;24.80;37.10
7264;BME280;3673;52.480;13.348;2023-06-14T08:40:53;101469.19;;;24.58;37.34
7264;BME280;3673;52.480;13.348;2023-06-14T08:43:23;101472.50;;;25.00;36.83
7264;BME280;3673;52.480;13.348;2023-06-14T08:45:53;101467.66;;;24.90;36.91
7264;BME280;3673;52.480;13.348;2023-06-14T08:48:26;101471.00;;;24.95;36.10
7264;BME280;3673;52.480;13.348;2023-06-14T08:50:56;101459.78;;;24.87;36.05
7264;BME280;3673;52.480;13.348;2023-06-14T08:53:28;101465.47;;;24.98;35.97
7264;BME280;3673;52.480;13.348;2023-06-14T08:55:57;101463.28;;;25.06;35.88
7264;BME280;3673;52.480;13.348;2023-06-14T08:58:27;101458.81;;;25.24;35.48
7264;BME280;3673;52.480;13.348;2023-06-14T09:00:55;101467.25;;;25.33;34.81
7264;BME280;3673;52.480;13.348;2023-06-14T09:03:23;101465.50;;;25.32;34.74
7264;BME280;3673;52.480;13.348;2023-06-14T09:05:56;101464.66;;;25.15;35.27
7264;BME280;3673;52.480;13.348;2023-06-14T09:08:25;101467.91;;;25.38;35.02
7264;BME280;3673;52.480;13.348;2023-06-14T09:10:52;101470.88;;;25.32;35.08
7264;BME280;3673;52.480;13.348;2023-06-14T09:13:19;101468.94;;;25.53;34.73
7264;BME280;3673;52.480;13.348;2023-06-14T09:15:46;101466.44;;;25.67;34.65
7264;BME280;3673;52.480;13.348;2023-06-14T09:18:13;101474.16;;;25.73;34.50
7264;BME280;3673;52.480;13.348;2023-06-14T09:20:41;101464.16;;;25.59;35.06
7264;BME280;3673;52.480;13.348;2023-06-14T09:23:09;101457.84;;;25.60;34.81
7264;BME280;3673;52.480;13.348;2023-06-14T09:25:42;101461.78;;;25.71;34.95
7264;BME280;3673;52.480;13.348;2023-06-14T09:28:10;101457.28;;;25.88;34.63
7264;BME280;3673;52.480;13.348;2023-06-14T09:30:37;101458.72;;;26.11;34.19
7264;BME280;3673;52.480;13.348;2023-06-14T09:33:04;101462.19;;;26.13;34.56
7264;BME280;3673;52.480;13.348;2023-06-14T09:35:31;101466.28;;;25.53;34.25
7264;BME280;3673;52.480;13.348;2023-06-14T09:37:58;101469.78;;;25.36;34.45
7264;BME280;3673;52.480;13.348;2023-06-14T09:40:34;101478.50;;;25.58;33.85
7264;BME280;3673;52.480;13.348;2023-06-14T09:43:04;101472.34;;;25.56;34.22
7264;BME280;3673;52.480;13.348;2023-06-14T09:45:33;101466.22;;;25.36;34.24
7264;BME280;3673;52.480;13.348;2023-06-14T09:48:01;101465.50;;;25.68;33.94
7264;BME280;3673;52.480;13.348;2023-06-14T09:50:28;101472.81;;;25.82;33.85
7264;BME280;3673;52.480;13.348;2023-06-14T09:53:02;101474.13;;;25.90;33.63
7264;BME280;3673;52.480;13.348;2023-06-14T09:55:34;101470.69;;;25.88;34.12
7264;BME280;3673;52.480;13.348;2023-06-14T09:58:05;101469.97;;;25.85;33.92
7264;BME280;3673;52.480;13.348;2023-06-14T10:00:33;101479.28;;;25.78;34.23
7264;BME280;3673;52.480;13.348;2023-06-14T10:03:07;101478.94;;;25.49;34.52
7264;BME280;3673;52.480;13.348;2023-06-14T10:05:37;101471.84;;;25.66;34.47
7264;BME280;3673;52.480;13.348;2023-06-14T10:08:08;101474.97;;;25.75;34.14
7264;BME280;3673;52.480;13.348;2023-06-14T10:10:39;101473.38;;;25.88;34.05
7264;BME280;3673;52.480;13.348;2023-06-14T10:13:07;101466.13;;;26.06;33.92
7264;BME280;3673;52.480;13.348;2023-06-14T10:15:43;101462.50;;;26.07;33.54
7264;BME280;3673;52.480;13.348;2023-06-14T10:18:21;101463.75;;;25.84;33.92
7264;BME280;3673;52.480;13.348;2023-06-14T10:20:58;101465.22;;;25.90;33.96
7264;BME280;3673;52.480;13.348;2023-06-14T10:23:28;101474.97;;;25.75;33.93
7264;BME280;3673;52.480;13.348;2023-06-14T10:25:58;101468.19;;;25.68;33.91
7264;BME280;3673;52.480;13.348;2023-06-14T10:28:25;101470.84;;;25.85;33.91
7264;BME280;3673;52.480;13.348;2023-06-14T10:31:03;101464.66;;;25.49;34.18
7264;BME280;3673;52.480;13.348;2023-06-14T10:33:31;101453.41;;;25.77;33.49
7264;BME280;3673;52.480;13.348;2023-06-14T10:36:24;101455.69;;;25.84;33.75
7264;BME280;3673;52.480;13.348;2023-06-14T10:39:01;101447.00;;;25.79;33.94
7264;BME280;3673;52.480;13.348;2023-06-14T10:41:35;101446.84;;;25.82;33.52
7264;BME280;3673;52.480;13.348;2023-06-14T10:44:37;101443.94;;;25.70;33.90
7264;BME280;3673;52.480;13.348;2023-06-14T10:47:08;101445.84;;;25.85;33.90
7264;BME280;3673;52.480;13.348;2023-06-14T10:49:41;101452.91;;;25.86;33.99
7264;BME280;3673;52.480;13.348;2023-06-14T10:52:10;101442.66;;;25.94;33.93
7264;BME280;3673;52.480;13.348;2023-06-14T10:55:17;101444.09;;;25.84;33.49
7264;BME280;3673;52.480;13.348;2023-06-14T10:57:48;101439.69;;;25.83;33.57
7264;BME280;3673;52.480;13.348;2023-06-14T11:00:19;101429.97;;;25.97;33.78
7264;BME280;3673;52.480;13.348;2023-06-14T11:03:40;101433.06;;;26.23;33.14
7264;BME280;3673;52.480;13.348;2023-06-14T11:06:14;101432.63;;;25.97;33.37
7264;BME280;3673;52.480;13.348;2023-06-14T11:09:19;101429.91;;;26.15;33.02
7264;BME280;3673;52.480;13.348;2023-06-14T11:11:48;101435.94;;;26.02;33.41
7264;BME280;3673;52.480;13.348;2023-06-14T11:14:16;101429.72;;;26.50;32.40
7264;BME280;3673;52.480;13.348;2023-06-14T11:16:48;101432.06;;;26.56;32.23
7264;BME280;3673;52.480;13.348;2023-06-14T11:19:15;101422.41;;;26.85;31.66
7264;BME280;3673;52.480;13.348;2023-06-14T11:21:43;101421.06;;;27.08;31.50
7264;BME280;3673;52.480;13.348;2023-06-14T11:24:13;101418.66;;;26.88;31.04
7264;BME280;3673;52.480;13.348;2023-06-14T11:26:40;101418.38;;;27.08;30.87
7264;BME280;3673;52.480;13.348;2023-06-14T11:29:07;101414.13;;;27.34;30.34
7264;BME280;3673;52.480;13.348;2023-06-14T11:31:35;101412.69;;;27.42;30.16
7264;BME280;3673;52.480;13.348;2023-06-14T11:34:02;101410.00;;;27.86;29.57
7264;BME280;3673;52.480;13.348;2023-06-14T11:36:31;101406.66;;;27.97;29.22
7264;BME280;3673;52.480;13.348;2023-06-14T11:38:59;101402.03;;;27.71;29.39
7264;BME280;3673;52.480;13.348;2023-06-14T11:41:33;101398.41;;;28.69;28.19
7264;BME280;3673;52.480;13.348;2023-06-14T11:44:01;101401.06;;;29.23;27.36
7264;BME280;3673;52.480;13.348;2023-06-14T11:46:28;101394.78;;;29.09;27.00
7264;BME280;3673;52.480;13.348;2023-06-14T11:48:56;101395.13;;;29.05;27.15
7264;BME280;3673;52.480;13.348;2023-06-14T11:51:23;101386.22;;;28.90;27.29
7264;BME280;3673;52.480;13.348;2023-06-14T11:53:50;101387.59;;;28.83;27.77
7264;BME280;3673;52.480;13.348;2023-06-14T11:56:17;101392.63;;;28.20;28.60
7264;BME280;3673;52.480;13.348;2023-06-14T11:58:45;101380.69;;;27.96;29.35
7264;BME280;3673;52.480;13.348;2023-06-14T12:01:16;101386.47;;;27.76;28.83
7264;BME280;3673;52.480;13.348;2023-06-14T12:03:48;101381.00;;;28.05;28.50
7264;BME280;3673;52.480;13.348;2023-06-14T12:06:24;101375.41;;;28.23;28.03
7264;BME280;3673;52.480;13.348;2023-06-14T12:08:55;101369.53;;;28.44;27.87
7264;BME280;3673;52.480;13.348;2023-06-14T12:11:22;101359.22;;;28.51;27.68
7264;BME280;3673;52.480;13.348;2023-06-14T12:13:49;101360.69;;;28.96;27.47
7264;BME280;3673;52.480;13.348;2023-06-14T12:16:16;101349.59;;;29.78;25.99
7264;BME280;3673;52.480;13.348;2023-06-14T12:18:42;101351.31;;;31.00;24.58
7264;BME280;3673;52.480;13.348;2023-06-14T12:21:11;101346.66;;;31.59;23.49
7264;BME280;3673;52.480;13.348;2023-06-14T12:23:46;101336.59;;;31.73;23.01
7264;BME280;3673;52.480;13.348;2023-06-14T12:26:14;101339.06;;;31.64;23.36
7264;BME280;3673;52.480;13.348;2023-06-14T12:28:42;101335.31;;;32.43;22.64
7264;BME280;3673;52.480;13.348;2023-06-14T12:31:11;101343.97;;;32.26;22.34
7264;BME280;3673;52.480;13.348;2023-06-14T12:33:39;101341.25;;;33.33;21.06
7264;BME280;3673;52.480;13.348;2023-06-14T12:36:08;101337.84;;;32.13;22.11
7264;BME280;3673;52.480;13.348;2023-06-14T12:38:35;101332.75;;;32.42;21.79
7264;BME280;3673;52.480;13.348;2023-06-14T12:41:04;101334.06;;;32.90;21.45
7264;BME280;3673;52.480;13.348;2023-06-14T12:43:31;101338.16;;;32.85;20.67
7264;BME280;3673;52.480;13.348;2023-06-14T12:45:58;101338.41;;;33.34;20.93
7264;BME280;3673;52.480;13.348;2023-06-14T12:48:24;101332.41;;;33.82;20.20
7264;BME280;3673;52.480;13.348;2023-06-14T12:50:52;101324.13;;;34.23;19.99
7264;BME280;3673;52.480;13.348;2023-06-14T12:53:19;101322.00;;;34.36;19.16
7264;BME280;3673;52.480;13.348;2023-06-14T12:55:46;101311.88;;;34.48;18.99
7264;BME280;3673;52.480;13.348;2023-06-14T12:58:14;101314.94;;;33.75;19.99
7264;BME280;3673;52.480;13.348;2023-06-14T13:00:42;101315.34;;;33.49;19.65
7264;BME280;3673;52.480;13.348;2023-06-14T13:03:10;101324.09;;;32.48;19.83
7264;BME280;3673;52.480;13.348;2023-06-14T13:05:37;101316.16;;;32.56;20.44
7264;BME280;3673;52.480;13.348;2023-06-14T13:08:07;101313.00;;;33.35;18.70